createdAt,value
2018-12-05T05:08:11.106Z,-1.60
2018-12-05T05:09:46.777Z,-1.60
2018-12-05T05:11:24.381Z,-1.60
2018-12-05T05:13:00.897Z,-1.70
2018-12-05T05:14:38.874Z,-1.70
2018-12-05T05:16:14.979Z,-1.70
2018-12-05T05:17:50.817Z,-1.60
2018-12-05T05:19:27.203Z,-1.60
2018-12-05T05:21:03.326Z,-1.70
2018-12-05T05:22:38.624Z,-1.70
2018-12-05T05:24:17.179Z,-1.70
2018-12-05T05:25:56.307Z,-1.80
2018-12-05T05:27:35.885Z,-1.80
2018-12-05T05:29:13.698Z,-1.90
2018-12-05T05:30:50.081Z,-1.80
2018-12-05T05:32:31.955Z,-1.80
2018-12-05T05:34:11.535Z,-1.80
2018-12-05T05:35:57.179Z,-1.90
2018-12-05T05:37:44.941Z,-1.90
2018-12-05T05:39:43.618Z,-1.90
2018-12-05T05:41:28.288Z,-1.90
2018-12-05T05:43:12.789Z,-1.90
2018-12-05T05:44:59.989Z,-1.80
2018-12-05T05:46:55.591Z,-1.80
2018-12-05T05:48:54.646Z,-1.80
2018-12-05T06:40:30.763Z,-2.20
2018-12-05T06:42:11.998Z,-2.00
2018-12-05T06:43:52.398Z,-2.10
2018-12-05T06:45:31.061Z,-2.20
2018-12-05T06:47:07.215Z,-2.20
2018-12-05T06:48:43.234Z,-2.10
2018-12-05T06:50:20.147Z,-2.10
2018-12-05T06:51:55.585Z,-2.10
2018-12-05T06:53:31.537Z,-2.00
2018-12-05T06:55:10.480Z,-2.00
2018-12-05T06:56:48.176Z,-2.00
2018-12-05T06:58:25.890Z,-1.90
2018-12-05T07:00:03.603Z,-1.80
2018-12-05T07:01:48.417Z,-1.80
2018-12-05T07:03:29.882Z,-1.70
2018-12-05T07:05:15.826Z,-1.60
2018-12-05T07:07:00.073Z,-1.60
2018-12-05T07:08:41.038Z,-1.50
2018-12-05T07:10:24.747Z,-1.50
2018-12-05T07:12:10.512Z,-1.50
2018-12-05T07:14:04.490Z,-1.40
2018-12-05T07:15:45.270Z,-1.40
2018-12-05T07:54:03.969Z,-1.30
2018-12-05T07:55:39.332Z,-1.30
2018-12-05T07:57:19.691Z,0.30
2018-12-05T08:11:21.086Z,0.40
2018-12-05T08:12:56.342Z,0.60
2018-12-05T08:14:31.517Z,0.70
2018-12-05T08:16:06.691Z,0.70
2018-12-05T08:17:42.029Z,0.70
2018-12-05T08:19:17.385Z,0.80
2018-12-05T08:20:52.684Z,0.80
2018-12-05T08:22:40.015Z,0.90
2018-12-05T08:26:59.608Z,1.10
2018-12-05T08:28:39.357Z,1.20
2018-12-05T08:30:15.665Z,1.30
2018-12-05T08:31:52.941Z,1.40
2018-12-05T08:33:34.044Z,1.50
2018-12-05T08:35:16.822Z,1.60
2018-12-05T08:36:58.853Z,1.70
2018-12-05T08:38:56.260Z,1.70
2018-12-05T08:40:53.704Z,1.60
2018-12-05T08:42:41.958Z,1.50
2018-12-05T08:44:17.408Z,1.50
2018-12-05T08:46:15.012Z,1.60
2018-12-05T08:48:17.161Z,1.70
2018-12-05T08:50:01.250Z,1.80
2018-12-05T08:51:50.848Z,1.90
2018-12-05T08:53:40.959Z,1.90
2018-12-05T08:55:42.210Z,2.00
2018-12-05T08:57:29.685Z,2.10
2018-12-05T08:59:22.721Z,2.20
2018-12-05T09:21:35.873Z,3.30
2018-12-05T09:23:43.128Z,3.30
2018-12-05T09:25:39.838Z,3.30
2018-12-05T09:27:32.097Z,3.40
2018-12-05T09:29:22.276Z,3.50
2018-12-05T09:31:20.122Z,3.60
2018-12-05T09:32:56.853Z,3.80
2018-12-05T09:34:34.427Z,4.20
2018-12-05T09:36:15.702Z,4.50
2018-12-05T09:37:51.003Z,4.90
2018-12-05T09:39:26.312Z,5.00
2018-12-05T09:41:01.496Z,5.10
2018-12-05T09:42:36.658Z,5.20
2018-12-05T09:44:11.933Z,5.20
2018-12-05T09:45:49.330Z,5.20
2018-12-05T09:47:28.319Z,5.30
2018-12-05T09:49:59.370Z,5.20
2018-12-05T12:01:56.651Z,9.70
2018-12-05T12:03:31.660Z,9.80
2018-12-05T12:05:07.278Z,9.90
2018-12-05T12:06:42.236Z,10.00
2018-12-05T12:08:17.265Z,10.00
2018-12-05T12:09:52.258Z,9.80
2018-12-05T12:11:27.231Z,9.40
2018-12-05T12:13:05.957Z,9.20
2018-12-05T12:14:41.014Z,8.90
2018-12-05T12:16:16.307Z,8.80
2018-12-05T12:17:51.272Z,8.80
2018-12-05T12:19:26.201Z,8.90
2018-12-05T12:21:01.273Z,9.00
2018-12-05T12:22:36.216Z,9.00
2018-12-05T12:24:11.218Z,9.00
2018-12-05T12:25:46.245Z,9.00
2018-12-05T12:27:21.304Z,9.00
2018-12-05T12:28:56.209Z,8.90
2018-12-05T12:30:31.129Z,8.80
2018-12-05T12:32:06.091Z,8.50
2018-12-05T12:33:41.072Z,8.40
2018-12-05T12:35:16.035Z,8.20
2018-12-05T12:36:50.945Z,8.00
2018-12-05T12:38:25.854Z,7.90
2018-12-05T12:40:00.826Z,7.80
2018-12-05T12:41:35.748Z,7.80
2018-12-05T12:43:10.775Z,7.80
2018-12-05T12:44:45.746Z,7.90
2018-12-05T12:46:20.960Z,8.00
2018-12-05T12:47:55.916Z,8.10
2018-12-05T12:49:31.027Z,8.10
2018-12-05T12:51:06.096Z,8.10
2018-12-05T12:52:41.157Z,8.00
2018-12-05T12:54:16.071Z,7.90
2018-12-05T12:55:50.993Z,7.90
2018-12-05T12:57:25.911Z,7.90
2018-12-05T12:59:01.067Z,7.80
2018-12-05T13:00:36.210Z,7.70
2018-12-05T13:02:11.143Z,7.70
2018-12-05T13:03:46.076Z,7.80
2018-12-05T13:05:21.108Z,7.80
2018-12-05T13:06:56.015Z,7.80
2018-12-05T13:08:31.036Z,7.80
2018-12-05T13:10:07.212Z,7.80
2018-12-05T13:11:42.225Z,7.80
2018-12-05T13:13:17.167Z,7.80
2018-12-05T13:14:52.152Z,7.70
2018-12-05T13:16:27.095Z,7.70
2018-12-05T13:18:02.098Z,7.80
2018-12-05T13:19:37.053Z,7.70
2018-12-05T13:21:12.055Z,7.70
2018-12-05T13:22:47.030Z,7.70
2018-12-05T13:24:22.339Z,7.70
2018-12-05T13:25:57.243Z,7.70
2018-12-05T13:27:32.148Z,7.70
2018-12-05T13:29:07.133Z,7.70
2018-12-05T13:30:42.128Z,7.70
2018-12-05T13:32:17.058Z,7.60
2018-12-05T13:33:52.650Z,7.50
2018-12-05T13:35:28.161Z,7.30
2018-12-05T13:37:03.336Z,7.10
2018-12-05T13:38:38.464Z,7.00
2018-12-05T13:40:13.616Z,7.00
2018-12-05T13:41:48.623Z,6.90
2018-12-05T13:43:23.528Z,6.80
2018-12-05T13:44:58.540Z,6.80
2018-12-05T13:46:33.624Z,6.70
2018-12-05T13:48:08.711Z,6.60
2018-12-05T13:49:43.665Z,6.50
2018-12-05T13:51:18.671Z,6.50
2018-12-05T13:52:53.642Z,6.50
2018-12-05T13:54:28.548Z,6.40
2018-12-05T13:56:03.476Z,6.30
2018-12-05T13:57:38.540Z,6.20
2018-12-05T13:59:13.476Z,6.10
2018-12-05T14:00:48.599Z,6.00
2018-12-05T14:02:23.480Z,5.90
2018-12-05T14:03:58.587Z,5.90
2018-12-05T14:05:33.547Z,5.80
2018-12-05T14:07:08.583Z,5.80
2018-12-05T14:08:43.532Z,5.80
2018-12-05T14:10:18.488Z,5.70
2018-12-05T14:11:53.559Z,5.70
2018-12-05T14:13:28.603Z,5.60
2018-12-05T14:15:03.628Z,5.60
2018-12-05T14:16:38.598Z,5.60
2018-12-05T14:18:13.576Z,5.50
2018-12-05T14:19:48.584Z,5.50
2018-12-05T14:21:23.524Z,5.50
2018-12-05T14:22:58.403Z,5.40
2018-12-05T14:24:33.320Z,5.40
2018-12-05T14:26:08.269Z,5.40
2018-12-05T14:27:43.279Z,5.40
2018-12-05T14:29:18.220Z,5.40
2018-12-05T14:30:53.152Z,5.30
2018-12-05T14:32:28.263Z,5.30
2018-12-05T14:34:03.287Z,5.30
2018-12-05T14:35:38.245Z,5.30
2018-12-05T14:37:13.131Z,5.30
2018-12-05T14:38:48.063Z,5.20
2018-12-05T14:40:23.049Z,5.10
2018-12-05T14:41:58.048Z,5.00
2018-12-05T14:43:33.017Z,4.90
2018-12-05T14:45:08.223Z,4.80
2018-12-05T14:46:43.188Z,4.70
2018-12-05T14:48:18.169Z,4.70
2018-12-05T14:49:53.094Z,4.60
2018-12-05T14:51:28.037Z,4.50
2018-12-05T14:53:02.935Z,4.40
2018-12-05T14:54:37.892Z,4.30
2018-12-05T14:56:12.889Z,4.20
2018-12-05T14:57:47.835Z,4.10
2018-12-05T14:59:22.799Z,4.10
2018-12-05T15:00:57.728Z,4.10
2018-12-05T15:02:32.710Z,4.00
2018-12-05T15:04:07.679Z,3.80
2018-12-05T15:05:42.593Z,3.80
2018-12-05T15:07:17.532Z,3.70
2018-12-05T15:08:52.495Z,3.60
2018-12-05T15:10:27.424Z,3.50
2018-12-05T15:12:02.499Z,3.40
2018-12-05T15:13:37.413Z,3.30
2018-12-05T15:15:12.463Z,3.10
2018-12-05T15:16:47.415Z,3.00
2018-12-05T15:18:22.362Z,2.90
2018-12-05T15:19:57.368Z,2.70
2018-12-05T15:21:32.299Z,2.70
2018-12-05T15:23:07.196Z,2.60
2018-12-05T15:24:42.129Z,2.60
2018-12-05T15:26:17.096Z,2.60
2018-12-05T15:27:52.077Z,2.50
2018-12-05T15:29:26.984Z,2.40
2018-12-05T15:31:01.863Z,2.30
2018-12-05T15:32:36.834Z,2.30
2018-12-05T15:34:11.901Z,2.20
2018-12-05T15:35:46.877Z,2.20
2018-12-05T15:37:21.824Z,2.20
2018-12-05T15:38:56.868Z,2.20
2018-12-05T15:40:31.796Z,2.00
2018-12-05T15:42:06.808Z,1.90
2018-12-05T15:43:41.728Z,1.90
2018-12-05T15:45:21.468Z,1.80
2018-12-05T15:46:53.708Z,1.80
2018-12-05T15:48:28.692Z,1.80
2018-12-05T15:50:03.631Z,1.70
2018-12-05T15:51:38.612Z,1.60
2018-12-05T15:53:13.568Z,1.50
2018-12-05T15:54:48.540Z,1.60
2018-12-05T15:56:23.471Z,1.50
2018-12-05T15:57:58.423Z,1.50
2018-12-05T15:59:33.375Z,1.40
2018-12-05T16:01:08.636Z,1.50
2018-12-05T16:02:43.590Z,1.40
2018-12-05T16:04:18.508Z,1.40
2018-12-05T16:05:53.440Z,1.40
2018-12-05T16:07:28.432Z,1.40
2018-12-05T16:09:03.582Z,1.40
2018-12-05T16:10:38.509Z,1.40
2018-12-05T16:12:13.437Z,1.50
2018-12-05T16:13:48.436Z,1.50
2018-12-05T16:15:23.461Z,1.50
2018-12-05T16:16:58.391Z,1.50
2018-12-05T16:18:33.314Z,1.50
2018-12-05T16:20:08.604Z,1.50
2018-12-05T16:21:43.596Z,1.50
2018-12-05T16:23:18.680Z,1.50
2018-12-05T16:24:53.597Z,1.50
2018-12-05T16:26:28.576Z,1.60
2018-12-05T16:28:03.589Z,1.60
2018-12-05T16:29:38.516Z,1.60
2018-12-05T16:31:13.443Z,1.60
2018-12-05T16:32:48.389Z,1.60
2018-12-05T16:34:23.396Z,1.50
2018-12-05T16:35:58.365Z,1.50
2018-12-05T16:37:33.365Z,1.40
2018-12-05T16:39:09.912Z,1.40
2018-12-05T16:40:44.881Z,1.40
2018-12-05T16:42:19.988Z,1.40
2018-12-05T16:43:55.095Z,1.40
2018-12-05T16:45:35.651Z,1.40
2018-12-05T16:47:11.120Z,1.40
2018-12-05T16:48:46.132Z,1.30
2018-12-05T16:50:21.137Z,1.40
2018-12-05T16:51:56.303Z,1.30
2018-12-05T16:53:31.904Z,1.30
2018-12-05T16:55:07.219Z,1.40
2018-12-05T16:56:42.272Z,1.30
2018-12-05T16:58:17.312Z,1.30
2018-12-05T16:59:52.485Z,1.30
2018-12-05T17:01:27.645Z,1.30
2018-12-05T17:03:05.772Z,1.30
2018-12-05T17:04:40.755Z,1.20
2018-12-05T17:06:16.591Z,1.10
2018-12-05T17:07:51.901Z,1.10
2018-12-05T17:09:26.999Z,1.10
2018-12-05T17:11:02.160Z,1.10
2018-12-05T17:12:37.082Z,1.10
2018-12-05T17:14:12.254Z,1.10
2018-12-05T17:15:47.213Z,1.00
2018-12-05T17:17:22.359Z,1.00
2018-12-05T17:18:57.283Z,1.00
2018-12-05T17:20:32.515Z,1.00
2018-12-05T17:22:07.612Z,1.00
2018-12-05T17:23:42.764Z,0.90
2018-12-05T17:25:17.941Z,0.90
2018-12-05T17:26:52.953Z,0.90
2018-12-05T17:28:27.876Z,0.90
2018-12-05T17:30:02.809Z,0.90
2018-12-05T17:31:37.767Z,0.80
2018-12-05T17:33:12.951Z,0.80
2018-12-05T17:34:48.263Z,0.80
2018-12-05T17:36:23.375Z,0.80
2018-12-05T17:37:58.477Z,0.80
2018-12-05T17:39:33.521Z,0.80
2018-12-05T17:41:08.428Z,0.70
2018-12-05T17:42:43.376Z,0.70
2018-12-05T17:44:18.388Z,0.80
2018-12-05T17:45:53.618Z,0.80
2018-12-05T17:47:28.699Z,0.80
2018-12-05T17:49:03.885Z,0.90
2018-12-05T17:50:38.984Z,0.90
2018-12-05T17:52:13.962Z,0.90
2018-12-05T17:53:49.116Z,0.90
2018-12-05T17:55:24.296Z,0.90
2018-12-05T17:56:59.592Z,0.80
2018-12-05T17:58:34.763Z,0.90
2018-12-05T18:00:10.046Z,0.90
2018-12-05T18:01:45.068Z,0.90
2018-12-05T18:03:20.134Z,0.90
2018-12-05T18:04:55.072Z,0.80
2018-12-05T18:06:30.598Z,0.80
2018-12-05T18:08:05.786Z,0.80
2018-12-05T18:09:40.784Z,0.80
2018-12-05T18:11:16.916Z,0.80
2018-12-05T18:12:52.541Z,0.80
2018-12-05T18:14:27.771Z,0.80
2018-12-05T18:16:02.768Z,0.80
2018-12-05T18:17:38.119Z,0.80
2018-12-05T18:19:13.093Z,0.80
2018-12-05T18:20:48.144Z,0.80
2018-12-05T18:22:23.218Z,0.80
2018-12-05T18:23:58.397Z,0.80
2018-12-05T18:25:33.561Z,0.80
2018-12-05T18:27:09.001Z,0.80
2018-12-05T18:28:44.041Z,0.70
2018-12-05T18:30:19.422Z,0.70
2018-12-05T18:31:54.648Z,0.70
2018-12-05T18:33:29.802Z,0.80
2018-12-05T18:35:05.831Z,0.80
2018-12-05T18:36:41.122Z,0.80
2018-12-05T18:38:16.146Z,0.90
2018-12-05T18:39:51.447Z,0.90
2018-12-05T18:41:26.916Z,0.90
2018-12-05T18:43:02.065Z,0.80
2018-12-05T18:44:37.532Z,0.80
2018-12-05T18:46:12.524Z,0.70
2018-12-05T18:47:47.799Z,0.70
2018-12-05T18:49:22.810Z,0.80
2018-12-05T18:50:58.062Z,0.80
2018-12-05T18:52:33.449Z,0.90
2018-12-05T18:54:09.093Z,0.90
2018-12-05T18:55:44.198Z,1.00
2018-12-05T18:57:19.244Z,1.10
2018-12-05T18:58:54.379Z,1.10
2018-12-05T19:00:29.356Z,1.10
2018-12-05T19:02:04.798Z,1.10
2018-12-05T19:03:39.864Z,1.20
2018-12-05T19:05:14.957Z,1.20
2018-12-05T19:06:50.636Z,1.20
2018-12-05T19:08:25.823Z,1.30
2018-12-05T19:10:00.870Z,1.50
2018-12-05T19:11:35.833Z,1.50
2018-12-05T19:13:12.861Z,1.60
2018-12-05T19:14:48.121Z,1.60
2018-12-05T19:16:29.800Z,1.70
2018-12-05T19:18:05.399Z,1.70
2018-12-05T19:19:40.744Z,1.70
2018-12-05T19:21:15.835Z,1.70
2018-12-05T19:22:50.805Z,1.70
2018-12-05T19:24:25.976Z,1.70
2018-12-05T19:26:01.072Z,1.70
2018-12-05T19:27:36.171Z,1.60
2018-12-05T19:29:11.666Z,1.50
2018-12-05T19:30:47.660Z,1.50
2018-12-05T19:32:22.600Z,1.40
2018-12-05T19:33:57.768Z,1.40
2018-12-05T19:35:34.774Z,1.30
2018-12-05T19:37:09.936Z,1.30
2018-12-05T19:38:45.065Z,1.30
2018-12-05T19:40:20.175Z,1.40
2018-12-05T19:41:55.580Z,1.50
2018-12-05T19:43:30.678Z,1.50
2018-12-05T19:45:07.057Z,1.50
2018-12-05T19:46:42.017Z,1.40
2018-12-05T19:48:17.072Z,1.50
2018-12-05T19:49:52.064Z,1.50
2018-12-05T19:51:27.089Z,1.60
2018-12-05T19:53:02.039Z,1.60
2018-12-05T19:54:36.991Z,1.60
2018-12-05T19:56:12.041Z,1.60
2018-12-05T19:57:47.164Z,1.60
2018-12-05T19:59:22.187Z,1.60
2018-12-05T22:02:38.175Z,2.10
